Time;durP1;ratioP1;P1;durP2;ratioP2;P2;SDS_P1;SDS_P2;PMS_P1;PMS_P2;Temp;Humidity;BMP_temperature;BMP_pressure;BME280_temperature;BME280_humidity;BME280_pressure;Samples;Min_cycle;Max_cycle;Signal;HPM_P1;HPM_P2
2022/05/28 00:00:03;;;;;;;12.07;4.30;;;9.50;99.90;;;;;;5117226;28;20199;-65
2022/05/28 00:02:29;;;;;;;8.97;3.87;;;9.50;99.90;;;;;;5116592;28;20177;-65
2022/05/28 00:04:54;;;;;;;6.40;3.17;;;9.50;99.90;;;;;;5116958;28;20176;-65
2022/05/28 00:07:20;;;;;;;9.10;3.70;;;9.50;99.90;;;;;;5116854;28;20203;-65
2022/05/28 00:09:46;;;;;;;9.03;3.77;;;9.50;99.90;;;;;;5116481;28;20196;-65
2022/05/28 00:12:11;;;;;;;10.27;3.33;;;9.50;99.90;;;;;;5116531;28;20643;-64
2022/05/28 00:14:38;;;;;;;6.60;3.73;;;9.50;99.90;;;;;;5116399;28;20200;-65
2022/05/28 00:17:04;;;;;;;9.57;4.27;;;9.50;99.90;;;;;;5116342;28;20199;-65
2022/05/28 00:19:30;;;;;;;10.90;4.23;;;9.50;99.90;;;;;;5116286;28;20558;-65
2022/05/28 00:21:55;;;;;;;7.23;3.47;;;9.50;99.90;;;;;;5116514;28;20232;-65
2022/05/28 00:24:21;;;;;;;7.07;3.50;;;9.40;99.90;;;;;;5116167;28;20164;-65
2022/05/28 00:26:47;;;;;;;9.07;3.63;;;9.40;99.90;;;;;;5116164;28;20238;-65
2022/05/28 00:29:12;;;;;;;8.53;3.97;;;9.40;99.90;;;;;;5097713;28;20231;-65
2022/05/28 00:31:38;;;;;;;8.20;3.43;;;9.40;99.90;;;;;;5115823;28;20169;-65
2022/05/28 00:34:04;;;;;;;9.47;3.87;;;9.40;99.90;;;;;;5115959;28;20180;-65
2022/05/28 00:36:30;;;;;;;6.97;3.60;;;9.40;99.90;;;;;;5115909;28;20188;-65
2022/05/28 00:38:56;;;;;;;10.13;3.97;;;9.40;99.90;;;;;;5115852;28;20204;-65
2022/05/28 00:41:22;;;;;;;9.87;3.90;;;9.40;99.90;;;;;;5116351;28;20173;-65
2022/05/28 00:43:48;;;;;;;7.93;3.57;;;9.40;99.90;;;;;;5116373;28;20177;-65
2022/05/28 00:46:16;;;;;;;6.17;3.60;;;9.30;99.90;;;;;;5097427;28;20320;-65
2022/05/28 00:48:45;;;;;;;7.73;4.07;;;9.30;99.90;;;;;;5115352;28;20283;-65
2022/05/28 00:51:18;;;;;;;14.33;4.43;;;9.30;99.90;;;;;;5115227;28;20249;-65
2022/05/28 00:53:44;;;;;;;9.47;4.30;;;9.30;99.90;;;;;;5097324;28;20633;-65
2022/05/28 00:56:11;;;;;;;7.60;3.80;;;9.30;99.90;;;;;;5115524;28;20212;-65
2022/05/28 00:58:37;;;;;;;10.13;4.43;;;9.30;99.90;;;;;;5115932;28;20212;-65
2022/05/28 01:01:06;;;;;;;5.77;4.13;;;9.30;99.90;;;;;;5115489;28;20172;-65
2022/05/28 01:03:41;;;;;;;10.97;4.00;;;9.30;99.90;;;;;;5115202;28;20179;-65
2022/05/28 01:06:35;;;;;;;5.30;3.97;;;9.30;99.90;;;;;;5097182;28;20192;-65
2022/05/28 01:09:18;;;;;;;9.60;3.80;;;9.30;99.90;;;;;;5105838;28;20224;-65
2022/05/28 01:12:10;;;;;;;12.37;4.20;;;9.30;99.90;;;;;;5115643;28;20160;-65
2022/05/28 01:14:54;;;;;;;12.33;4.27;;;9.30;99.90;;;;;;5096866;28;20200;-65
2022/05/28 01:17:31;;;;;;;15.50;4.40;;;9.30;99.90;;;;;;5115054;28;20637;-65
2022/05/28 01:20:19;;;;;;;9.63;4.23;;;9.30;99.90;;;;;;5115034;28;20191;-65
2022/05/28 01:23:24;;;;;;;11.50;4.13;;;9.30;99.90;;;;;;5114999;28;20178;-65
2022/05/28 01:26:14;;;;;;;7.60;3.97;;;9.30;99.90;;;;;;5115045;28;20156;-65
2022/05/28 01:28:46;;;;;;;12.53;5.47;;;9.20;99.90;;;;;;5115124;28;20188;-65
2022/05/28 01:31:14;;;;;;;13.50;3.80;;;9.20;99.90;;;;;;5115225;28;20564;-65
2022/05/28 01:33:42;;;;;;;9.03;3.73;;;9.20;99.90;;;;;;5114562;28;20632;-65
2022/05/28 01:36:11;;;;;;;7.87;4.00;;;9.10;99.90;;;;;;5114972;28;20256;-65
2022/05/28 01:38:38;;;;;;;10.37;4.10;;;9.10;99.90;;;;;;5114512;28;20246;-65
2022/05/28 01:41:06;;;;;;;11.47;4.50;;;9.10;99.90;;;;;;5114644;28;20183;-65
2022/05/28 01:43:37;;;;;;;13.77;4.87;;;9.10;99.90;;;;;;5114683;28;20248;-65
2022/05/28 01:46:07;;;;;;;10.50;4.10;;;9.20;99.90;;;;;;5115232;28;20188;-65
2022/05/28 01:48:34;;;;;;;6.43;4.00;;;9.20;99.90;;;;;;5114394;28;20156;-65
2022/05/28 01:51:02;;;;;;;14.13;4.33;;;9.20;99.90;;;;;;5114499;28;20169;-65
2022/05/28 01:56:14;;;;;;;8.70;3.87;;;9.20;99.90;;;;;;5114900;28;20213;-65
2022/05/28 01:58:40;;;;;;;14.43;4.40;;;9.20;99.90;;;;;;5114480;28;20227;-65
2022/05/28 02:01:08;;;;;;;11.60;4.20;;;9.30;99.90;;;;;;5114471;28;20176;-65
2022/05/28 02:03:37;;;;;;;9.53;4.57;;;9.30;99.90;;;;;;5113459;28;20164;-65
2022/05/28 02:06:03;;;;;;;13.07;4.97;;;9.30;99.90;;;;;;5114656;28;20277;-65
2022/05/28 02:08:32;;;;;;;8.03;4.20;;;9.30;99.90;;;;;;5114313;28;20186;-65
2022/05/28 02:11:09;;;;;;;6.97;4.40;;;9.30;99.90;;;;;;5114177;28;20256;-65
2022/05/28 02:14:00;;;;;;;11.20;4.27;;;9.40;99.90;;;;;;5095808;28;20240;-65
2022/05/28 02:16:35;;;;;;;9.57;4.13;;;9.30;99.90;;;;;;5114354;28;20190;-65
2022/05/28 02:19:06;;;;;;;12.07;4.57;;;9.30;99.90;;;;;;5113905;28;20187;-65
2022/05/28 02:21:45;;;;;;;15.80;4.80;;;9.30;99.90;;;;;;5114418;28;20156;-65
2022/05/28 02:24:24;;;;;;;10.23;4.07;;;9.30;99.90;;;;;;5114322;28;20156;-65
2022/05/28 02:27:01;;;;;;;10.50;4.30;;;9.20;99.90;;;;;;5114250;28;20200;-65
2022/05/28 02:29:27;;;;;;;11.43;4.47;;;9.20;99.90;;;;;;5114772;28;20282;-65
2022/05/28 02:31:53;;;;;;;11.07;4.43;;;9.20;99.90;;;;;;5114400;28;20172;-65
2022/05/28 02:34:19;;;;;;;15.27;4.43;;;9.20;99.90;;;;;;5096207;28;20233;-65
2022/05/28 02:36:45;;;;;;;13.23;4.43;;;9.20;99.90;;;;;;5114354;28;20199;-65
2022/05/28 02:39:11;;;;;;;15.77;4.40;;;9.30;99.90;;;;;;5114163;28;20192;-65
2022/05/28 02:41:38;;;;;;;11.17;4.30;;;9.30;99.90;;;;;;5114337;28;20168;-65
2022/05/28 02:44:04;;;;;;;10.03;4.27;;;9.30;99.90;;;;;;5114151;28;20168;-65
2022/05/28 02:46:30;;;;;;;12.43;4.80;;;9.30;99.90;;;;;;5114379;28;20180;-65
2022/05/28 02:48:56;;;;;;;9.37;4.60;;;9.40;99.90;;;;;;5113994;28;20192;-67
2022/05/28 02:51:23;;;;;;;17.90;4.77;;;9.40;99.90;;;;;;5114569;28;20628;-67
2022/05/28 02:53:51;;;;;;;11.43;4.27;;;9.40;99.90;;;;;;5114573;28;20176;-67
2022/05/28 02:56:18;;;;;;;13.30;4.57;;;9.40;99.90;;;;;;5096140;28;20200;-67
2022/05/28 02:58:43;;;;;;;10.20;4.23;;;9.40;99.90;;;;;;5114157;28;20660;-66
2022/05/28 03:01:23;;;;;;;13.03;4.43;;;9.40;99.90;;;;;;5114129;28;20226;-67
2022/05/28 03:03:49;;;;;;;9.00;4.80;;;9.50;99.90;;;;;;5113995;28;20529;-67
2022/05/28 03:06:15;;;;;;;12.43;4.97;;;9.60;99.90;;;;;;5095989;28;20278;-67
2022/05/28 03:08:41;;;;;;;9.70;4.83;;;9.60;99.90;;;;;;5114148;28;20286;-66
2022/05/28 03:11:07;;;;;;;10.27;4.00;;;9.70;99.90;;;;;;5096143;28;20540;-67
2022/05/28 03:13:33;;;;;;;9.80;4.50;;;9.70;99.90;;;;;;5114669;28;20225;-67
2022/05/28 03:15:59;;;;;;;12.80;4.80;;;9.80;99.90;;;;;;5118329;28;20196;-67
2022/05/28 03:18:25;;;;;;;15.43;5.23;;;9.80;99.90;;;;;;5117614;28;20248;-66
2022/05/28 03:20:50;;;;;;;8.37;4.40;;;9.90;99.90;;;;;;5099658;28;20182;-67
2022/05/28 03:23:16;;;;;;;11.73;4.73;;;9.90;99.90;;;;;;5118259;28;20193;-67
2022/05/28 03:25:42;;;;;;;9.00;4.67;;;9.90;99.90;;;;;;5117925;28;20172;-67
2022/05/28 03:28:08;;;;;;;9.77;4.83;;;9.90;99.90;;;;;;5099751;28;20177;-67
2022/05/28 03:30:33;;;;;;;12.80;4.47;;;9.90;99.90;;;;;;5099385;28;20197;-67
2022/05/28 03:32:59;;;;;;;14.83;4.57;;;9.90;99.90;;;;;;5117970;28;20235;-67
2022/05/28 03:35:25;;;;;;;9.60;4.37;;;10.00;99.90;;;;;;5118300;28;20655;-67
2022/05/28 03:37:50;;;;;;;11.57;4.50;;;10.00;99.90;;;;;;5099513;28;20263;-67
2022/05/28 03:40:16;;;;;;;7.93;4.33;;;10.00;99.90;;;;;;5099869;28;20200;-67
2022/05/28 03:42:42;;;;;;;8.57;4.73;;;10.00;99.90;;;;;;5118420;28;20560;-67
2022/05/28 03:45:08;;;;;;;10.40;4.50;;;10.00;99.90;;;;;;5118661;28;20572;-67
2022/05/28 03:47:34;;;;;;;14.53;4.90;;;10.00;99.90;;;;;;5099234;28;20180;-67
2022/05/28 03:50:00;;;;;;;9.10;4.70;;;10.00;99.90;;;;;;5117595;28;20184;-67
2022/05/28 03:52:26;;;;;;;14.13;5.00;;;10.00;99.90;;;;;;5099274;28;20202;-67
2022/05/28 03:54:52;;;;;;;10.03;4.70;;;10.00;99.90;;;;;;5117692;28;20721;-67
2022/05/28 03:57:24;;;;;;;15.77;4.77;;;10.10;99.90;;;;;;5099302;28;20611;-67
2022/05/28 03:59:49;;;;;;;14.63;5.47;;;10.10;99.90;;;;;;5117277;28;20192;-67
2022/05/28 04:02:15;;;;;;;14.67;4.70;;;10.20;99.90;;;;;;5098920;28;20259;-66
2022/05/28 04:04:41;;;;;;;12.80;4.97;;;10.20;99.90;;;;;;5117787;28;20169;-67
2022/05/28 04:07:09;;;;;;;12.43;4.93;;;10.30;99.90;;;;;;5099179;28;20180;-68
2022/05/28 04:09:34;;;;;;;15.10;5.77;;;10.30;99.90;;;;;;5099409;28;20261;-67
2022/05/28 04:12:00;;;;;;;12.50;4.80;;;10.30;99.90;;;;;;5098918;28;20184;-67
2022/05/28 04:14:26;;;;;;;10.47;4.90;;;10.40;99.90;;;;;;5117150;28;20271;-67
2022/05/28 04:16:52;;;;;;;14.07;4.90;;;10.40;99.90;;;;;;5117892;28;20217;-67
2022/05/28 04:19:17;;;;;;;15.13;4.77;;;10.50;99.90;;;;;;5098843;28;20560;-67
2022/05/28 04:21:43;;;;;;;16.23;4.90;;;10.50;99.90;;;;;;5117083;28;20641;-67
2022/05/28 04:24:09;;;;;;;10.53;4.73;;;10.50;99.90;;;;;;5117127;28;20172;-67
2022/05/28 04:26:35;;;;;;;9.67;4.30;;;10.60;99.90;;;;;;5098038;28;20552;-67
2022/05/28 04:29:00;;;;;;;11.20;5.10;;;10.60;99.90;;;;;;5099128;28;20228;-67
2022/05/28 04:31:26;;;;;;;11.60;4.93;;;10.60;99.90;;;;;;5117329;28;20184;-67
2022/05/28 04:33:52;;;;;;;15.57;5.60;;;10.60;99.90;;;;;;5116961;28;20173;-67
2022/05/28 04:36:18;;;;;;;13.60;5.53;;;10.50;99.90;;;;;;5098838;28;20223;-67
2022/05/28 04:38:44;;;;;;;10.30;4.57;;;10.60;99.90;;;;;;5100571;28;20200;-67
2022/05/28 04:41:09;;;;;;;9.80;4.60;;;10.60;99.90;;;;;;5121843;28;20183;-68
2022/05/28 04:43:35;;;;;;;11.40;4.60;;;10.50;99.90;;;;;;5120530;28;20165;-67
2022/05/28 04:46:01;;;;;;;14.37;5.03;;;10.60;99.90;;;;;;5120480;28;20184;-67
2022/05/28 04:48:27;;;;;;;10.60;5.10;;;10.60;99.90;;;;;;5117773;28;20169;-66
2022/05/28 04:50:53;;;;;;;12.87;4.63;;;10.70;99.90;;;;;;5098569;28;20641;-67
2022/05/28 04:53:19;;;;;;;11.33;4.73;;;10.80;99.90;;;;;;5116768;28;20176;-67
2022/05/28 04:55:45;;;;;;;12.17;4.93;;;10.90;99.90;;;;;;5098260;28;20214;-68
2022/05/28 04:58:12;;;;;;;7.37;4.57;;;11.00;99.90;;;;;;5098244;28;20172;-67
2022/05/28 05:00:39;;;;;;;8.40;4.50;;;11.00;99.90;;;;;;5116138;28;20192;-67
2022/05/28 05:03:05;;;;;;;15.03;4.93;;;11.10;99.90;;;;;;5116618;28;20710;-67
2022/05/28 05:05:31;;;;;;;11.17;4.23;;;11.10;99.90;;;;;;5099047;28;20181;-67
2022/05/28 05:07:57;;;;;;;13.90;5.13;;;11.10;99.90;;;;;;5098383;28;20233;-67
2022/05/28 05:10:23;;;;;;;14.13;4.53;;;11.20;99.90;;;;;;5116468;28;20227;-67
2022/05/28 05:12:48;;;;;;;8.13;4.27;;;11.20;99.90;;;;;;5116017;28;20660;-67
2022/05/28 05:15:14;;;;;;;11.60;4.10;;;11.30;99.90;;;;;;5115906;28;20196;-68
2022/05/28 05:17:40;;;;;;;9.47;4.13;;;11.20;99.90;;;;;;5097530;28;20182;-66
2022/05/28 05:20:08;;;;;;;7.93;3.83;;;11.20;99.90;;;;;;5115983;28;20188;-67
2022/05/28 05:22:33;;;;;;;12.63;3.97;;;11.20;99.90;;;;;;5097664;28;20180;-69
2022/05/28 05:25:00;;;;;;;9.90;4.17;;;11.20;99.90;;;;;;5116556;28;20238;-68
2022/05/28 05:27:26;;;;;;;11.47;4.57;;;11.20;99.90;;;;;;5116289;28;20163;-67
2022/05/28 05:29:56;;;;;;;9.03;4.00;;;11.20;99.90;;;;;;5116640;28;20188;-67
2022/05/28 05:32:22;;;;;;;9.67;4.10;;;11.30;99.90;;;;;;5097228;28;20633;-65
2022/05/28 05:34:48;;;;;;;11.87;4.53;;;11.30;99.90;;;;;;5115852;28;20181;-67
2022/05/28 05:37:13;;;;;;;10.33;4.03;;;11.30;99.90;;;;;;5097687;28;20188;-67
2022/05/28 05:39:40;;;;;;;11.60;3.70;;;11.30;99.90;;;;;;5115762;28;20711;-67
2022/05/28 05:42:06;;;;;;;7.70;3.53;;;11.20;99.90;;;;;;5097643;28;20538;-67
2022/05/28 05:44:31;;;;;;;6.80;3.53;;;11.20;99.90;;;;;;5115711;28;20175;-67
2022/05/28 05:46:57;;;;;;;6.73;4.23;;;11.20;99.90;;;;;;5097878;28;20165;-68
2022/05/28 05:49:23;;;;;;;5.93;3.40;;;11.10;99.90;;;;;;5115297;28;20196;-67
2022/05/28 05:51:48;;;;;;;5.07;3.17;;;11.20;99.90;;;;;;5115826;28;20180;-67
2022/05/28 05:54:15;;;;;;;8.23;3.60;;;11.20;99.90;;;;;;5097678;28;20177;-68
2022/05/28 05:56:41;;;;;;;7.17;3.77;;;11.30;99.90;;;;;;5115442;28;20283;-67
2022/05/28 05:59:07;;;;;;;5.73;3.70;;;11.40;99.90;;;;;;5115521;28;20223;-68
2022/05/28 06:01:33;;;;;;;9.60;3.93;;;11.50;99.90;;;;;;5115557;28;20177;-68
2022/05/28 06:03:59;;;;;;;10.00;4.13;;;11.70;99.90;;;;;;5115486;28;20244;-68
2022/05/28 06:06:25;;;;;;;9.00;4.13;;;11.70;99.90;;;;;;5115405;28;20196;-67
2022/05/28 06:08:51;;;;;;;7.00;3.50;;;11.70;99.90;;;;;;5097928;28;20239;-68
2022/05/28 06:11:17;;;;;;;8.47;3.33;;;11.70;99.90;;;;;;5116884;28;20171;-68
2022/05/28 06:13:43;;;;;;;8.57;4.10;;;11.80;99.90;;;;;;5114912;28;20184;-68
2022/05/28 06:16:09;;;;;;;8.47;3.43;;;11.80;99.90;;;;;;5114858;28;20667;-68
2022/05/28 06:18:35;;;;;;;8.70;3.60;;;11.80;99.90;;;;;;5114899;28;20169;-67
2022/05/28 06:21:02;;;;;;;7.20;3.10;;;11.90;99.90;;;;;;5115682;28;20185;-68
2022/05/28 06:23:29;;;;;;;8.10;3.27;;;11.90;99.90;;;;;;5115112;28;20204;-68
2022/05/28 06:25:55;;;;;;;7.43;3.73;;;11.90;99.90;;;;;;5115438;28;20229;-68
2022/05/28 06:28:22;;;;;;;8.73;3.50;;;11.80;99.90;;;;;;5115768;28;20181;-67
2022/05/28 06:30:50;;;;;;;7.87;3.57;;;11.80;99.90;;;;;;5096647;28;20181;-68
2022/05/28 06:33:17;;;;;;;6.73;3.20;;;11.90;99.90;;;;;;5115024;28;20177;-68
2022/05/28 06:35:43;;;;;;;9.77;3.40;;;11.90;99.90;;;;;;5114960;28;20294;-68
2022/05/28 06:38:09;;;;;;;6.23;3.10;;;11.80;99.90;;;;;;5114671;28;20214;-68
2022/05/28 06:40:35;;;;;;;13.37;3.37;;;11.80;99.90;;;;;;5114431;28;20219;-68
2022/05/28 06:43:02;;;;;;;5.57;3.10;;;11.80;99.90;;;;;;5096242;28;20180;-67
2022/05/28 06:45:27;;;;;;;10.20;2.77;;;11.80;99.90;;;;;;5096439;28;20184;-68
2022/05/28 06:47:53;;;;;;;7.63;3.50;;;11.70;99.90;;;;;;5114262;28;20647;-67
2022/05/28 06:53:08;;;;;;;8.10;3.00;;;11.80;99.90;;;;;;5119133;28;20184;-68
2022/05/28 06:55:38;;;;;;;5.00;2.90;;;11.80;99.90;;;;;;5100306;28;20594;-68
2022/05/28 06:58:06;;;;;;;9.03;3.50;;;11.80;99.90;;;;;;5119626;28;20245;-67
2022/05/28 07:00:32;;;;;;;6.57;3.00;;;11.90;99.90;;;;;;5119106;28;20187;-68
2022/05/28 07:02:58;;;;;;;6.63;3.20;;;12.00;99.90;;;;;;5118162;28;20177;-67
2022/05/28 07:05:24;;;;;;;5.07;2.93;;;12.00;99.90;;;;;;5100102;28;20176;-67
2022/05/28 07:07:50;;;;;;;6.50;2.90;;;12.00;99.90;;;;;;5118151;28;20268;-67
2022/05/28 07:10:16;;;;;;;6.55;2.75;;;12.00;99.90;;;;;;5118368;28;20195;-67
2022/05/28 07:12:42;;;;;;;10.03;3.43;;;12.00;99.90;;;;;;5118162;28;20172;-68
2022/05/28 07:15:08;;;;;;;6.90;3.00;;;12.00;99.90;;;;;;5099850;28;20563;-76
2022/05/28 07:17:34;;;;;;;7.60;3.60;;;11.90;99.90;;;;;;5117706;28;20184;-67
2022/05/28 07:20:00;;;;;;;4.77;2.67;;;11.80;99.90;;;;;;5117305;28;20242;-67
2022/05/28 07:22:25;;;;;;;9.80;3.10;;;11.80;99.90;;;;;;5117467;28;20217;-67
2022/05/28 07:24:51;;;;;;;7.20;2.80;;;11.80;99.90;;;;;;5117458;28;20221;-67
2022/05/28 07:27:18;;;;;;;5.53;2.97;;;11.90;99.90;;;;;;5117937;28;20244;-67
2022/05/28 07:29:44;;;;;;;7.63;3.20;;;12.00;99.90;;;;;;5117459;28;20188;-67
2022/05/28 07:32:10;;;;;;;3.87;2.80;;;12.30;99.90;;;;;;5117728;28;20168;-67
2022/05/28 07:34:36;;;;;;;4.07;3.08;;;12.70;99.90;;;;;;5099001;28;20259;-67
2022/05/28 07:37:02;;;;;;;5.65;3.00;;;12.90;99.90;;;;;;5117605;28;20237;-67
2022/05/28 07:39:28;;;;;;;4.75;3.13;;;13.00;99.90;;;;;;5117078;28;20196;-67
2022/05/28 07:41:53;;;;;;;6.95;3.05;;;12.90;99.90;;;;;;5098913;28;20173;-67
2022/05/28 07:44:19;;;;;;;6.07;3.05;;;12.90;99.90;;;;;;5117706;28;20268;-68
2022/05/28 07:46:45;;;;;;;4.63;2.70;;;12.90;99.90;;;;;;5117355;28;20173;-67
2022/05/28 07:49:11;;;;;;;6.25;3.03;;;12.90;99.90;;;;;;5116868;28;20649;-67
2022/05/28 07:51:37;;;;;;;5.38;3.00;;;12.90;99.90;;;;;;5117204;28;20203;-67
2022/05/28 07:54:04;;;;;;;8.10;3.28;;;12.80;99.90;;;;;;5098753;28;20256;-67
2022/05/28 07:56:30;;;;;;;6.28;3.10;;;12.70;99.90;;;;;;5117070;28;20688;-67
2022/05/28 07:58:57;;;;;;;4.35;2.80;;;12.80;99.90;;;;;;5098873;28;20192;-67
2022/05/28 08:01:31;;;;;;;5.78;2.85;;;13.00;99.90;;;;;;5116067;28;20169;-67
2022/05/28 08:04:01;;;;;;;7.22;2.75;;;13.30;99.90;;;;;;5117006;28;20164;-67
2022/05/28 08:06:30;;;;;;;8.20;2.97;;;13.40;99.90;;;;;;5117103;28;20526;-67
2022/05/28 08:08:56;;;;;;;6.10;3.63;;;13.40;99.90;;;;;;5098603;28;20210;-66
2022/05/28 08:11:22;;;;;;;8.35;2.90;;;13.30;99.90;;;;;;5117648;28;20529;-67
2022/05/28 08:13:48;;;;;;;6.85;3.10;;;13.10;99.90;;;;;;5098893;28;20265;-67
2022/05/28 08:16:15;;;;;;;6.88;3.10;;;12.80;99.90;;;;;;5098348;28;20652;-67
2022/05/28 08:18:41;;;;;;;3.20;2.65;;;12.70;99.90;;;;;;5116545;28;20695;-70
2022/05/28 08:23:53;;;;;;;9.93;3.10;;;12.40;99.90;;;;;;5116879;28;20210;-67
2022/05/28 08:26:19;;;;;;;6.53;3.13;;;12.40;99.90;;;;;;5116300;28;20176;-67
2022/05/28 08:28:47;;;;;;;8.80;3.53;;;12.40;99.90;;;;;;5098643;28;20196;-66
2022/05/28 08:31:14;;;;;;;7.35;2.88;;;12.60;99.90;;;;;;5116215;28;20586;-67
2022/05/28 08:33:40;;;;;;;9.07;3.40;;;12.90;99.90;;;;;;5097773;28;20211;-67
2022/05/28 08:36:07;;;;;;;5.82;3.55;;;13.20;99.90;;;;;;5116320;28;20235;-67
2022/05/28 08:38:33;;;;;;;7.80;3.13;;;13.50;99.90;;;;;;5116357;28;20176;-66
2022/05/28 08:41:13;;;;;;;5.43;3.33;;;13.80;99.90;;;;;;5097972;28;20164;-66
2022/05/28 08:43:46;;;;;;;6.18;3.13;;;14.00;99.90;;;;;;5116028;28;20168;-66
2022/05/28 08:46:15;;;;;;;5.28;3.03;;;14.30;99.90;;;;;;5097654;28;20168;-67
2022/05/28 08:48:45;;;;;;;6.63;2.97;;;14.40;99.90;;;;;;5115960;28;20239;-67
2022/05/28 08:51:39;;;;;;;3.95;2.60;;;14.10;99.90;;;;;;5098125;28;20187;-67
2022/05/28 08:54:18;;;;;;;4.07;2.65;;;13.80;99.90;;;;;;5116402;28;20164;-66
2022/05/28 08:56:45;;;;;;;3.33;2.38;;;13.50;99.90;;;;;;5116464;28;20189;-66
2022/05/28 08:59:16;;;;;;;6.85;3.20;;;13.50;99.90;;;;;;5115944;28;20216;-67
2022/05/28 09:01:46;;;;;;;9.52;2.80;;;13.50;99.90;;;;;;5115804;28;20172;-67
2022/05/28 09:04:16;;;;;;;8.25;3.15;;;13.50;99.90;;;;;;5116006;28;20176;-66
2022/05/28 09:06:51;;;;;;;6.68;2.72;;;13.30;99.90;;;;;;5116278;28;20557;-66
2022/05/28 09:09:17;;;;;;;10.30;2.70;;;13.60;99.90;;;;;;5115646;28;20196;-67
2022/05/28 09:11:51;;;;;;;6.80;2.97;;;13.80;99.90;;;;;;5115241;28;20221;-66
2022/05/28 09:14:37;;;;;;;9.30;3.05;;;14.30;99.90;;;;;;5115290;28;20199;-66
2022/05/28 09:17:15;;;;;;;4.03;2.38;;;14.60;99.90;;;;;;5115233;28;20196;-66
2022/05/28 09:19:42;;;;;;;6.25;3.00;;;14.90;99.90;;;;;;5115056;28;20188;-67
2022/05/28 09:22:08;;;;;;;4.80;2.80;;;15.30;99.90;;;;;;5115506;28;20625;-67
2022/05/28 09:24:34;;;;;;;9.05;2.80;;;15.40;99.90;;;;;;5115391;28;20184;-67
2022/05/28 09:27:00;;;;;;;6.95;2.67;;;15.40;99.90;;;;;;5096875;28;20176;-67
2022/05/28 09:29:40;;;;;;;7.05;2.78;;;15.20;99.90;;;;;;5096839;28;20199;-66
2022/05/28 09:32:46;;;;;;;6.60;2.60;;;15.00;99.90;;;;;;5114983;28;20165;-66
2022/05/28 09:35:48;;;;;;;6.05;2.75;;;15.30;99.90;;;;;;5114765;28;20536;-66
2022/05/28 09:38:25;;;;;;;6.97;2.83;;;15.80;99.90;;;;;;5096751;28;20547;-66
2022/05/28 09:40:54;;;;;;;3.25;2.33;;;15.50;99.90;;;;;;5115322;28;20236;-65
2022/05/28 09:43:40;;;;;;;6.28;2.38;;;15.30;99.90;;;;;;5096903;28;20709;-66
2022/05/28 09:46:17;;;;;;;5.47;2.58;;;15.50;99.90;;;;;;5096921;28;20641;-66
2022/05/28 09:48:46;;;;;;;3.95;2.40;;;15.80;99.90;;;;;;5096916;28;20195;-66
2022/05/28 09:51:38;;;;;;;5.95;2.50;;;16.10;99.90;;;;;;5114900;28;20173;-66
2022/05/28 09:54:23;;;;;;;3.22;2.35;;;16.10;99.90;;;;;;5110488;28;20536;-66
2022/05/28 09:56:58;;;;;;;4.70;2.45;;;15.70;99.90;;;;;;5096702;28;20199;-66
2022/05/28 09:59:44;;;;;;;5.30;3.00;;;15.50;99.90;;;;;;5114631;28;20541;-66
2022/05/28 10:02:27;;;;;;;4.47;2.40;;;15.60;99.90;;;;;;5115395;28;20248;-66
2022/05/28 10:04:56;;;;;;;4.53;2.60;;;15.60;99.90;;;;;;5114746;28;20172;-66
2022/05/28 10:07:32;;;;;;;3.75;2.15;;;15.70;99.90;;;;;;5114637;28;20197;-65
2022/05/28 10:09:59;;;;;;;2.83;2.38;;;15.80;99.90;;;;;;5096689;28;20227;-66
2022/05/28 10:12:28;;;;;;;4.22;2.60;;;16.00;99.90;;;;;;5096515;28;20701;-66
2022/05/28 10:15:17;;;;;;;4.28;2.65;;;15.70;99.90;;;;;;5096272;28;20211;-66
2022/05/28 10:18:06;;;;;;;5.35;2.80;;;15.70;99.90;;;;;;5096875;28;20184;-66
2022/05/28 10:20:31;;;;;;;9.73;2.85;;;15.90;99.90;;;;;;5114300;28;20223;-66
2022/05/28 10:23:02;;;;;;;6.00;2.80;;;16.10;99.90;;;;;;5114742;28;20635;-67
2022/05/28 10:25:46;;;;;;;5.25;2.67;;;15.80;99.90;;;;;;5096207;28;20172;-67
2022/05/28 10:28:12;;;;;;;8.18;2.80;;;15.50;99.90;;;;;;5115636;28;20160;-66
2022/05/28 10:30:43;;;;;;;5.15;2.58;;;15.60;99.90;;;;;;5115221;28;20184;-66
2022/05/28 10:33:17;;;;;;;6.75;2.90;;;15.60;99.90;;;;;;5114855;28;20617;-66
2022/05/28 10:35:43;;;;;;;5.47;2.70;;;15.60;99.90;;;;;;5096532;28;20323;-66
2022/05/28 10:38:15;;;;;;;6.97;2.67;;;15.60;99.90;;;;;;5114907;28;20180;-66
2022/05/28 10:40:58;;;;;;;4.60;2.25;;;15.90;99.90;;;;;;5097508;28;20194;-65
2022/05/28 10:43:30;;;;;;;6.80;2.53;;;16.10;99.90;;;;;;5115325;28;20170;-65
2022/05/28 10:46:15;;;;;;;9.55;2.80;;;16.50;99.90;;;;;;5098087;28;20181;-66
2022/05/28 10:48:43;;;;;;;5.90;2.42;;;16.40;99.90;;;;;;5116319;28;20192;-66
2022/05/28 10:51:20;;;;;;;3.30;2.28;;;16.30;99.90;;;;;;5115445;28;20663;-66
2022/05/28 10:53:48;;;;;;;4.78;2.95;;;16.30;99.90;;;;;;5115204;28;20160;-67
2022/05/28 10:56:42;;;;;;;4.38;2.42;;;16.00;99.90;;;;;;5114910;28;20200;-66
2022/05/28 10:59:26;;;;;;;8.50;2.65;;;15.70;99.90;;;;;;5096381;28;20223;-66
2022/05/28 11:01:58;;;;;;;6.38;2.67;;;15.30;99.90;;;;;;5114395;28;20164;-66
2022/05/28 11:04:48;;;;;;;4.55;2.80;;;15.20;99.90;;;;;;5096029;28;20157;-66
2022/05/28 11:07:22;;;;;;;4.57;2.70;;;15.30;99.90;;;;;;5114497;28;20172;-66
2022/05/28 11:10:06;;;;;;;5.28;2.42;;;15.70;99.90;;;;;;5114400;28;20187;-66
2022/05/28 11:12:57;;;;;;;5.32;2.67;;;16.10;99.90;;;;;;5114603;28;20544;-66
2022/05/28 11:15:46;;;;;;;5.63;2.75;;;16.40;99.90;;;;;;5096760;28;20192;-66
2022/05/28 11:18:17;;;;;;;3.75;2.33;;;16.60;99.90;;;;;;5115002;28;20244;-66
2022/05/28 11:20:51;;;;;;;4.68;2.28;;;16.50;99.90;;;;;;5114812;28;20200;-65
2022/05/28 11:23:28;;;;;;;7.45;2.33;;;16.30;99.90;;;;;;5114840;28;20656;-66
2022/05/28 11:26:19;;;;;;;4.80;2.75;;;16.20;99.90;;;;;;5114504;28;20169;-65
2022/05/28 11:28:45;;;;;;;3.72;2.47;;;16.10;99.90;;;;;;5114845;28;20562;-66
2022/05/28 11:31:50;;;;;;;4.85;2.40;;;16.20;99.90;;;;;;5114718;28;20173;-65
2022/05/28 11:34:24;;;;;;;3.45;2.20;;;16.20;99.90;;;;;;5096295;28;20205;-66
2022/05/28 11:37:12;;;;;;;4.53;2.42;;;16.00;99.90;;;;;;5118394;28;20200;-66
2022/05/28 11:39:50;;;;;;;4.28;2.33;;;16.20;99.90;;;;;;5118841;28;20254;-66
2022/05/28 11:42:38;;;;;;;5.25;2.42;;;16.10;99.90;;;;;;5118450;28;20191;-66
2022/05/28 11:45:10;;;;;;;4.95;2.55;;;16.10;99.90;;;;;;5118274;28;20614;-66
2022/05/28 11:47:52;;;;;;;6.43;2.80;;;16.00;99.90;;;;;;5100252;28;20176;-67
2022/05/28 11:53:41;;;;;;;5.25;2.45;;;16.00;99.90;;;;;;5118813;28;20186;-66
2022/05/28 11:56:16;;;;;;;4.15;2.55;;;16.60;99.90;;;;;;5117339;28;20200;-65
2022/05/28 11:58:48;;;;;;;5.45;2.70;;;16.60;99.90;;;;;;5116692;28;20195;-65
2022/05/28 12:01:21;;;;;;;5.05;2.55;;;16.90;99.90;;;;;;5116966;28;20169;-64
2022/05/28 12:03:47;;;;;;;8.18;2.65;;;16.70;99.90;;;;;;5116899;28;20497;-65
2022/05/28 12:06:27;;;;;;;3.92;2.40;;;16.40;99.90;;;;;;5116650;28;20168;-66
2022/05/28 12:09:04;;;;;;;7.90;2.63;;;16.00;99.90;;;;;;5098076;28;20208;-67
2022/05/28 12:11:30;;;;;;;9.05;2.63;;;15.70;99.90;;;;;;5116514;28;20235;-65
2022/05/28 12:13:59;;;;;;;4.45;2.42;;;15.50;99.90;;;;;;5116413;28;20218;-66
2022/05/28 12:16:31;;;;;;;5.00;2.47;;;15.50;99.90;;;;;;5116797;28;20625;-66
2022/05/28 12:19:01;;;;;;;5.20;2.53;;;15.80;99.90;;;;;;5116032;28;20675;-65
2022/05/28 12:21:38;;;;;;;7.38;2.80;;;16.00;99.90;;;;;;5098081;28;20177;-64
2022/05/28 12:24:25;;;;;;;5.10;2.40;;;16.30;99.90;;;;;;5097926;28;20221;-65
2022/05/28 12:29:38;;;;;;;5.82;2.40;;;16.50;99.90;;;;;;5116645;28;20249;-65
2022/05/28 12:32:19;;;;;;;5.03;2.60;;;17.10;99.90;;;;;;5116812;28;20159;-65
2022/05/28 12:35:20;;;;;;;5.70;2.17;;;17.70;99.90;;;;;;5116104;28;20641;-65
2022/05/28 12:38:08;;;;;;;4.60;2.08;;;17.90;99.90;;;;;;5097955;28;20233;-66
2022/05/28 12:41:00;;;;;;;5.00;2.00;;;18.20;99.90;;;;;;5116457;28;20188;-65
2022/05/28 12:43:35;;;;;;;6.32;2.35;;;18.20;99.90;;;;;;5104879;28;20188;-65
2022/05/28 12:46:20;;;;;;;4.22;2.50;;;17.60;99.90;;;;;;5116025;28;20523;-65
2022/05/28 12:48:50;;;;;;;6.30;2.60;;;17.00;99.90;;;;;;5115180;28;20194;-65
2022/05/28 12:51:28;;;;;;;8.38;2.72;;;16.50;99.90;;;;;;5115937;28;20160;-65
2022/05/28 12:54:00;;;;;;;5.32;2.75;;;16.20;99.90;;;;;;5115918;28;20165;-65
2022/05/28 12:56:35;;;;;;;6.82;2.60;;;16.00;99.90;;;;;;5115575;28;20192;-65
2022/05/28 12:59:22;;;;;;;5.38;2.72;;;16.30;99.90;;;;;;5115630;28;20278;-69
2022/05/28 13:02:24;;;;;;;5.97;2.28;;;17.30;99.90;;;;;;5115344;28;20164;-68
2022/05/28 13:05:17;;;;;;;3.97;2.10;;;18.00;99.90;;;;;;5101292;28;20660;-69
2022/05/28 13:07:54;;;;;;;6.85;2.20;;;18.30;99.90;;;;;;5111630;28;20568;-72
2022/05/28 13:10:27;;;;;;;5.90;2.10;;;17.80;99.90;;;;;;5115559;28;20184;-67
2022/05/28 13:13:28;;;;;;;4.07;2.17;;;17.80;99.90;;;;;;5097501;28;20176;-65
2022/05/28 13:16:25;;;;;;;5.88;2.33;;;17.80;99.90;;;;;;5115327;28;20235;-65
2022/05/28 13:19:29;;;;;;;5.05;2.25;;;17.50;99.90;;;;;;5096548;28;20302;-65